createdAt,value
2023-02-19T00:02:27.819Z,27.52
2023-02-19T00:04:56.421Z,27.56
2023-02-19T00:07:24.569Z,27.54
2023-02-19T00:09:57.265Z,27.60
2023-02-19T00:12:25.538Z,27.52
2023-02-19T00:14:55.762Z,27.45
2023-02-19T00:17:23.788Z,27.58
2023-02-19T00:19:51.787Z,27.49
2023-02-19T00:22:22.008Z,27.53
2023-02-19T00:24:49.956Z,27.54
2023-02-19T00:27:18.023Z,27.45
2023-02-19T00:29:46.094Z,27.50
2023-02-19T00:32:17.680Z,27.52
2023-02-19T00:34:45.852Z,27.49
2023-02-19T00:37:13.927Z,27.50
2023-02-19T00:39:42.091Z,27.45
2023-02-19T00:42:10.288Z,27.48
2023-02-19T00:44:39.270Z,27.50
2023-02-19T00:47:07.422Z,27.46
2023-02-19T00:49:35.283Z,27.51
2023-02-19T00:52:04.616Z,27.43
2023-02-19T00:54:32.600Z,27.51
2023-02-19T00:57:00.586Z,27.51
2023-02-19T00:59:32.104Z,27.51
2023-02-19T01:02:00.005Z,27.52
2023-02-19T01:04:28.438Z,27.54
2023-02-19T01:06:57.659Z,27.47
2023-02-19T01:09:25.599Z,27.44
2023-02-19T01:11:54.686Z,27.51
2023-02-19T01:14:22.898Z,27.43
2023-02-19T01:16:51.781Z,27.44
2023-02-19T01:19:19.922Z,27.41
2023-02-19T01:21:48.021Z,27.37
2023-02-19T01:24:17.998Z,27.36
2023-02-19T01:26:46.923Z,27.30
2023-02-19T01:29:14.955Z,27.46
2023-02-19T01:31:43.436Z,27.41
2023-02-19T01:34:13.002Z,27.30
2023-02-19T01:36:42.118Z,27.43
2023-02-19T01:39:10.542Z,27.33
2023-02-19T01:41:40.902Z,27.30
2023-02-19T01:44:28.721Z,27.27
2023-02-19T01:46:58.856Z,27.30
2023-02-19T01:49:38.890Z,27.26
2023-02-19T01:52:16.174Z,27.29
2023-02-19T01:54:44.331Z,27.30
2023-02-19T01:57:16.132Z,27.31
2023-02-19T01:59:44.321Z,27.30
2023-02-19T02:02:12.259Z,27.38
2023-02-19T02:04:40.850Z,27.35
2023-02-19T02:07:28.743Z,27.40
2023-02-19T02:10:16.067Z,27.36
2023-02-19T02:12:51.665Z,27.29
2023-02-19T02:15:19.847Z,27.35
2023-02-19T02:17:50.586Z,27.26
2023-02-19T02:20:42.558Z,27.25
2023-02-19T02:23:23.455Z,27.34
2023-02-19T02:26:02.038Z,27.30
2023-02-19T02:28:45.351Z,27.35
2023-02-19T02:31:18.499Z,27.29
2023-02-19T02:33:54.790Z,27.32
2023-02-19T02:36:34.871Z,27.31
2023-02-19T02:39:05.245Z,27.32
2023-02-19T02:41:35.657Z,27.36
2023-02-19T02:44:03.631Z,27.35
2023-02-19T02:46:34.524Z,27.27
2023-02-19T02:49:06.715Z,27.36
2023-02-19T02:51:34.784Z,27.27
2023-02-19T02:54:39.504Z,27.32
2023-02-19T02:57:14.811Z,27.29
2023-02-19T02:59:49.414Z,27.34
2023-02-19T03:02:22.861Z,27.23
2023-02-19T03:05:22.566Z,27.24
2023-02-19T03:07:59.771Z,27.19
2023-02-19T03:10:37.479Z,27.36
2023-02-19T03:13:25.960Z,27.31
2023-02-19T03:16:15.335Z,27.28
2023-02-19T03:19:02.671Z,27.28
2023-02-19T03:21:30.808Z,27.37
2023-02-19T03:24:17.760Z,27.32
2023-02-19T03:26:53.876Z,27.30
2023-02-19T03:29:23.752Z,27.29
2023-02-19T03:32:02.391Z,27.16
2023-02-19T03:34:55.380Z,27.26
2023-02-19T03:37:37.125Z,27.24
2023-02-19T03:40:05.869Z,27.24
2023-02-19T03:42:56.247Z,27.22
2023-02-19T03:45:38.977Z,27.28
2023-02-19T03:48:24.255Z,27.23
2023-02-19T03:51:00.203Z,27.28
2023-02-19T03:53:48.346Z,27.29
2023-02-19T03:56:18.626Z,27.38
2023-02-19T03:59:00.931Z,27.36
2023-02-19T04:01:45.336Z,27.34
2023-02-19T04:04:21.818Z,27.29
2023-02-19T04:06:57.525Z,27.34
2023-02-19T04:09:29.816Z,27.28
2023-02-19T04:12:09.678Z,27.34
2023-02-19T04:14:44.085Z,27.34
2023-02-19T04:17:17.179Z,27.34
2023-02-19T04:19:45.088Z,27.33
2023-02-19T04:22:13.210Z,27.34
2023-02-19T04:24:52.592Z,27.35
2023-02-19T04:27:21.278Z,27.32
2023-02-19T04:29:49.876Z,27.33
2023-02-19T04:32:17.918Z,27.27
2023-02-19T04:34:45.886Z,27.28
2023-02-19T04:37:13.831Z,27.37
2023-02-19T04:39:41.819Z,27.32
2023-02-19T04:42:10.738Z,27.30
2023-02-19T04:44:38.844Z,27.34
2023-02-19T04:47:06.791Z,27.34
2023-02-19T04:49:34.984Z,27.27
2023-02-19T04:52:05.449Z,27.17
2023-02-19T04:54:33.506Z,27.25
2023-02-19T04:57:01.801Z,27.21
2023-02-19T04:59:30.331Z,27.23
2023-02-19T05:01:58.329Z,27.25
2023-02-19T05:04:26.716Z,27.19
2023-02-19T05:06:54.846Z,27.19
2023-02-19T05:09:22.906Z,27.21
2023-02-19T05:11:50.809Z,27.23
2023-02-19T05:14:18.850Z,27.14
2023-02-19T05:16:47.199Z,27.22
2023-02-19T05:19:17.081Z,27.18
2023-02-19T05:21:45.033Z,27.15
2023-02-19T05:24:13.021Z,27.16
2023-02-19T05:26:44.043Z,27.11
2023-02-19T05:29:13.259Z,27.11
2023-02-19T05:31:41.241Z,27.11
2023-02-19T05:34:09.421Z,27.09
2023-02-19T05:36:37.471Z,27.18
2023-02-19T05:39:06.374Z,27.06
2023-02-19T05:41:34.658Z,27.09
2023-02-19T05:44:02.869Z,27.06
2023-02-19T05:46:31.319Z,27.13
2023-02-19T05:48:59.434Z,27.09
2023-02-19T05:51:27.754Z,27.12
2023-02-19T05:53:56.668Z,27.16
2023-02-19T05:56:37.553Z,27.16
2023-02-19T05:59:19.920Z,27.05
2023-02-19T06:01:49.878Z,27.08
2023-02-19T06:04:20.046Z,26.99
2023-02-19T06:06:48.758Z,26.97
2023-02-19T06:09:17.217Z,26.88
2023-02-19T06:11:45.267Z,26.69
2023-02-19T06:14:13.994Z,26.46
2023-02-19T06:16:42.350Z,26.24
2023-02-19T06:19:12.127Z,25.98
2023-02-19T06:21:41.526Z,25.71
2023-02-19T06:24:09.782Z,25.53
2023-02-19T06:26:38.644Z,25.42
2023-02-19T06:29:06.557Z,25.43
2023-02-19T06:31:34.818Z,25.30
2023-02-19T06:34:05.976Z,25.18
2023-02-19T06:36:34.815Z,24.93
2023-02-19T06:39:04.209Z,24.73
2023-02-19T06:41:33.115Z,24.57
2023-02-19T06:44:01.662Z,24.33
2023-02-19T06:46:29.952Z,24.11
2023-02-19T06:48:57.899Z,24.13
2023-02-19T06:51:28.990Z,24.16
2023-02-19T06:53:57.456Z,24.07
2023-02-19T06:56:30.315Z,23.93
2023-02-19T06:59:00.446Z,23.97
2023-02-19T07:01:31.981Z,23.44
2023-02-19T07:04:00.598Z,23.04
2023-02-19T07:06:29.256Z,22.68
2023-02-19T07:09:00.059Z,22.17
2023-02-19T07:11:31.275Z,21.70
2023-02-19T07:14:00.046Z,21.39
2023-02-19T07:16:28.080Z,21.40
2023-02-19T07:18:58.000Z,21.39
2023-02-19T07:21:31.299Z,21.41
2023-02-19T07:24:00.107Z,21.32
2023-02-19T07:26:28.075Z,21.11
2023-02-19T07:28:56.462Z,20.79
2023-02-19T07:31:24.824Z,20.58
2023-02-19T07:33:53.321Z,20.16
2023-02-19T07:36:22.382Z,20.02
2023-02-19T07:38:57.348Z,19.82
2023-02-19T07:41:25.708Z,19.78
2023-02-19T07:43:58.827Z,19.98
2023-02-19T07:46:27.872Z,20.26
2023-02-19T07:48:59.685Z,20.61
2023-02-19T07:51:27.736Z,20.82
2023-02-19T07:53:55.712Z,21.24
2023-02-19T07:56:23.683Z,21.43
2023-02-19T07:58:51.632Z,21.70
2023-02-19T08:01:44.333Z,21.96
2023-02-19T08:04:13.696Z,22.32
2023-02-19T08:06:42.767Z,22.62
2023-02-19T08:09:10.946Z,22.71
2023-02-19T08:12:00.775Z,22.70
2023-02-19T08:14:29.698Z,23.04
2023-02-19T08:16:57.738Z,23.21
2023-02-19T08:19:25.810Z,23.35
2023-02-19T08:21:53.938Z,23.46
2023-02-19T08:24:22.107Z,23.67
2023-02-19T08:26:51.234Z,23.77
2023-02-19T08:29:19.209Z,23.85
2023-02-19T08:31:49.038Z,24.00
2023-02-19T08:34:17.182Z,23.97
2023-02-19T08:36:45.360Z,24.18
2023-02-19T08:39:13.947Z,24.27
2023-02-19T08:41:42.537Z,24.52
2023-02-19T08:44:10.593Z,24.50
2023-02-19T08:46:41.234Z,24.75
2023-02-19T08:49:09.502Z,24.73
2023-02-19T08:51:37.556Z,24.89
2023-02-19T08:54:07.412Z,24.97
2023-02-19T08:56:35.987Z,25.02
2023-02-19T08:59:04.532Z,25.20
2023-02-19T09:01:32.811Z,25.19
2023-02-19T09:04:56.769Z,25.44
2023-02-19T09:07:24.711Z,25.28
2023-02-19T09:09:53.611Z,25.23
2023-02-19T09:12:21.995Z,25.37
2023-02-19T09:14:55.530Z,25.52
2023-02-19T09:17:23.570Z,25.51
2023-02-19T09:19:51.583Z,25.67
2023-02-19T09:22:19.474Z,25.64
2023-02-19T09:24:47.828Z,25.74
2023-02-19T09:27:16.940Z,25.68
2023-02-19T09:29:45.720Z,25.81
2023-02-19T09:32:13.872Z,25.87
2023-02-19T09:34:42.266Z,25.86
2023-02-19T09:37:13.286Z,25.97
2023-02-19T09:39:41.686Z,25.94
2023-02-19T09:42:15.704Z,26.01
2023-02-19T09:44:47.459Z,26.16
2023-02-19T09:47:20.646Z,26.17
2023-02-19T09:49:51.381Z,26.14
2023-02-19T09:52:25.093Z,26.10
2023-02-19T09:54:57.655Z,26.09
2023-02-19T09:57:26.322Z,26.24
2023-02-19T10:00:02.322Z,26.26
2023-02-19T10:02:32.995Z,26.26
2023-02-19T10:05:03.185Z,26.28
2023-02-19T10:07:40.345Z,26.30
2023-02-19T10:10:14.005Z,26.35
2023-02-19T10:12:51.369Z,26.28
2023-02-19T10:15:38.692Z,26.11
2023-02-19T10:18:10.068Z,26.09
2023-02-19T10:20:39.915Z,26.11
2023-02-19T10:23:08.373Z,26.17
2023-02-19T10:25:36.480Z,26.10
2023-02-19T10:28:06.546Z,26.06
2023-02-19T10:30:35.737Z,26.03
2023-02-19T10:33:09.390Z,26.00
2023-02-19T10:35:39.401Z,26.05
2023-02-19T10:38:08.350Z,26.03
2023-02-19T10:40:37.594Z,26.07
2023-02-19T10:43:05.788Z,26.04
2023-02-19T10:45:41.406Z,26.04
2023-02-19T10:48:24.719Z,26.02
2023-02-19T10:50:58.216Z,26.08
2023-02-19T10:53:45.487Z,26.10
2023-02-19T10:56:28.836Z,26.05
2023-02-19T10:59:29.108Z,26.09
2023-02-19T11:01:58.194Z,26.04
2023-02-19T11:04:34.122Z,26.09
2023-02-19T11:07:14.389Z,26.02
2023-02-19T11:09:45.526Z,26.00
2023-02-19T11:12:14.452Z,26.07
2023-02-19T11:14:43.918Z,26.20
2023-02-19T11:17:24.805Z,26.02
2023-02-19T11:19:58.908Z,26.04
2023-02-19T11:22:29.617Z,26.02
2023-02-19T11:25:10.515Z,25.96
2023-02-19T11:27:54.147Z,25.92
2023-02-19T11:30:34.392Z,25.96
2023-02-19T11:33:16.036Z,25.89
2023-02-19T11:35:44.733Z,25.98
2023-02-19T11:38:14.303Z,25.78
2023-02-19T11:41:04.631Z,25.87
2023-02-19T11:44:10.811Z,25.88
2023-02-19T11:47:11.233Z,25.81
2023-02-19T11:49:52.949Z,25.91
2023-02-19T11:52:33.540Z,25.84
2023-02-19T11:55:38.934Z,25.83
2023-02-19T11:58:22.449Z,25.74
2023-02-19T12:01:08.247Z,25.78
2023-02-19T12:03:58.839Z,25.73
2023-02-19T12:06:38.894Z,25.91
2023-02-19T12:09:32.371Z,25.77
2023-02-19T12:12:18.910Z,25.65
2023-02-19T12:15:22.722Z,25.68
2023-02-19T12:18:09.883Z,25.73
2023-02-19T12:20:48.096Z,25.64
2023-02-19T12:23:43.393Z,25.79
2023-02-19T12:26:31.054Z,25.80
2023-02-19T12:29:30.488Z,25.77
2023-02-19T12:32:08.888Z,25.69
2023-02-19T12:35:08.399Z,25.63
2023-02-19T12:37:40.437Z,25.76
2023-02-19T12:40:43.786Z,25.79
2023-02-19T12:43:16.179Z,25.61
2023-02-19T12:45:48.088Z,25.74
2023-02-19T12:48:33.634Z,25.68
2023-02-19T12:51:07.588Z,25.60
2023-02-19T12:53:42.390Z,25.67
2023-02-19T12:56:23.231Z,25.64
2023-02-19T12:58:53.978Z,25.70
2023-02-19T13:01:31.008Z,25.65
2023-02-19T13:04:43.905Z,25.63
2023-02-19T13:07:19.631Z,25.57
2023-02-19T13:09:58.956Z,25.65
2023-02-19T13:12:30.285Z,25.67
2023-02-19T13:15:14.013Z,25.71
2023-02-19T13:17:46.512Z,25.62
2023-02-19T13:20:36.811Z,25.63
2023-02-19T13:23:35.952Z,25.58
2023-02-19T13:26:15.783Z,25.59
2023-02-19T13:29:06.918Z,25.63
2023-02-19T13:31:53.663Z,25.54
2023-02-19T13:35:02.454Z,25.68
2023-02-19T13:37:34.657Z,25.71
2023-02-19T13:40:07.098Z,25.64
2023-02-19T13:42:36.289Z,25.66
2023-02-19T13:45:05.472Z,25.62
2023-02-19T13:47:55.280Z,25.67
2023-02-19T13:50:25.176Z,25.71
2023-02-19T13:52:56.554Z,25.70
2023-02-19T13:55:43.203Z,25.63
2023-02-19T13:58:33.484Z,25.74
2023-02-19T14:01:02.184Z,25.73
2023-02-19T14:03:37.302Z,25.66
2023-02-19T14:06:07.503Z,25.74
2023-02-19T14:08:51.207Z,25.82
2023-02-19T14:11:42.803Z,25.63
2023-02-19T14:14:40.354Z,25.70
2023-02-19T14:17:35.810Z,25.72
2023-02-19T14:20:43.398Z,25.77
2023-02-19T14:23:23.040Z,25.74
2023-02-19T14:25:58.298Z,25.80
2023-02-19T14:28:45.248Z,25.80
2023-02-19T14:31:24.538Z,25.80
2023-02-19T14:33:54.024Z,25.77
2023-02-19T14:36:37.366Z,25.88
2023-02-19T14:39:08.336Z,25.89
2023-02-19T14:41:38.737Z,25.85
2023-02-19T14:44:12.701Z,25.79
2023-02-19T14:47:00.469Z,25.86
2023-02-19T14:49:45.938Z,25.86
2023-02-19T14:52:25.095Z,25.93
2023-02-19T14:54:55.918Z,25.84
2023-02-19T14:57:27.432Z,25.84
2023-02-19T15:00:00.569Z,25.87
2023-02-19T15:02:29.717Z,26.03
2023-02-19T15:04:58.163Z,26.14
2023-02-19T15:07:32.953Z,26.24
2023-02-19T15:10:05.055Z,26.26
2023-02-19T15:12:47.230Z,26.32
2023-02-19T15:15:36.705Z,26.22
2023-02-19T15:18:04.878Z,26.34
2023-02-19T15:20:35.935Z,26.62
2023-02-19T15:23:07.779Z,27.12
2023-02-19T15:25:38.095Z,27.28
2023-02-19T15:28:26.452Z,27.45
2023-02-19T15:30:57.678Z,27.49
2023-02-19T15:33:27.833Z,27.48
2023-02-19T15:35:59.483Z,27.57
2023-02-19T15:38:28.360Z,27.57
2023-02-19T15:40:57.977Z,27.61
2023-02-19T15:43:28.002Z,27.60
2023-02-19T15:46:04.670Z,27.49
2023-02-19T15:48:54.958Z,27.58
2023-02-19T15:51:27.115Z,27.55
2023-02-19T15:53:58.772Z,27.57
2023-02-19T15:56:30.725Z,27.43
2023-02-19T15:59:12.028Z,27.39
2023-02-19T16:01:40.814Z,27.46
2023-02-19T16:04:32.442Z,27.49
2023-02-19T16:07:02.156Z,27.48
2023-02-19T16:09:32.628Z,27.41
2023-02-19T16:12:01.781Z,27.43
2023-02-19T16:14:35.276Z,27.37
2023-02-19T16:17:09.888Z,27.45
2023-02-19T16:20:01.157Z,27.46
2023-02-19T16:22:32.060Z,27.46
2023-02-19T16:25:04.936Z,27.41
2023-02-19T16:27:40.990Z,27.36
2023-02-19T16:30:31.450Z,27.27
2023-02-19T16:33:48.519Z,27.19
2023-02-19T16:36:22.623Z,27.19
2023-02-19T16:39:06.919Z,27.07
2023-02-19T16:41:41.101Z,27.06
2023-02-19T16:44:21.878Z,27.01
2023-02-19T16:46:51.568Z,27.01
2023-02-19T16:49:19.742Z,26.96
2023-02-19T16:51:47.717Z,26.93
2023-02-19T16:54:15.983Z,26.98
2023-02-19T16:56:43.882Z,26.86
2023-02-19T16:59:11.900Z,26.92
2023-02-19T17:01:41.019Z,26.85
2023-02-19T17:04:11.907Z,26.75
2023-02-19T17:06:39.995Z,26.79
2023-02-19T17:09:08.704Z,26.77
2023-02-19T17:11:41.392Z,26.78
2023-02-19T17:14:10.695Z,26.72
2023-02-19T17:16:40.756Z,26.79
2023-02-19T17:19:14.841Z,26.67
2023-02-19T17:21:44.406Z,26.62
2023-02-19T17:24:15.092Z,26.61
2023-02-19T17:26:43.345Z,26.60
2023-02-19T17:29:14.089Z,26.52
2023-02-19T17:31:42.142Z,26.49
2023-02-19T17:34:12.285Z,26.46
2023-02-19T17:36:42.966Z,26.39
2023-02-19T17:39:15.270Z,26.39
2023-02-19T17:41:43.502Z,26.46
2023-02-19T17:44:11.846Z,26.44
2023-02-19T17:46:40.295Z,26.41
2023-02-19T17:49:11.045Z,26.36
2023-02-19T17:51:45.654Z,26.35
2023-02-19T17:54:13.930Z,26.36
2023-02-19T17:56:44.582Z,26.37
2023-02-19T17:59:12.635Z,26.33
2023-02-19T18:01:40.832Z,26.41
2023-02-19T18:04:09.156Z,26.28
2023-02-19T18:06:37.463Z,26.41
2023-02-19T18:09:06.251Z,26.26
2023-02-19T18:11:36.384Z,26.29
2023-02-19T18:14:12.445Z,26.26
2023-02-19T18:16:50.113Z,26.38
2023-02-19T18:19:18.826Z,26.28
2023-02-19T18:21:49.201Z,26.29
2023-02-19T18:24:17.173Z,26.39
2023-02-19T18:26:45.383Z,26.28
2023-02-19T18:29:13.863Z,26.37
2023-02-19T18:31:42.199Z,26.38
2023-02-19T18:34:16.641Z,26.23
2023-02-19T18:36:49.564Z,26.27
2023-02-19T18:39:17.512Z,26.16
2023-02-19T18:41:52.652Z,26.15
2023-02-19T18:44:21.973Z,26.07
2023-02-19T18:46:50.229Z,26.09
2023-02-19T18:49:18.482Z,26.02
2023-02-19T18:51:46.971Z,26.03
2023-02-19T18:54:15.778Z,25.99
2023-02-19T18:56:44.459Z,26.02
2023-02-19T18:59:13.093Z,25.99
2023-02-19T19:01:41.390Z,25.99
2023-02-19T19:04:10.910Z,25.95
2023-02-19T19:06:41.560Z,25.92
2023-02-19T19:09:09.550Z,25.86
2023-02-19T19:11:38.639Z,25.82
2023-02-19T19:14:08.338Z,25.89
2023-02-19T19:16:36.609Z,25.88
2023-02-19T19:19:05.297Z,25.95
2023-02-19T19:21:33.788Z,25.98
2023-02-19T19:24:02.425Z,25.82
2023-02-19T19:26:31.076Z,25.83
2023-02-19T19:28:59.063Z,25.70
2023-02-19T19:31:33.867Z,25.87
2023-02-19T19:34:02.740Z,25.72
2023-02-19T19:36:32.313Z,25.83
2023-02-19T19:39:00.530Z,25.75
2023-02-19T19:41:28.877Z,25.82
2023-02-19T19:43:57.369Z,25.72
2023-02-19T19:46:25.282Z,25.78
2023-02-19T19:48:54.551Z,25.68
2023-02-19T19:51:22.725Z,25.56
2023-02-19T19:53:50.893Z,25.58
2023-02-19T19:56:19.270Z,25.52
2023-02-19T19:58:47.841Z,25.54
2023-02-19T20:01:21.434Z,25.53
2023-02-19T20:03:53.097Z,25.54
2023-02-19T20:06:30.993Z,25.60
2023-02-19T20:09:00.109Z,25.55
2023-02-19T20:11:28.591Z,25.52
2023-02-19T20:13:56.697Z,25.54
2023-02-19T20:16:27.641Z,25.46
2023-02-19T20:18:56.078Z,25.44
2023-02-19T20:21:24.258Z,25.50
2023-02-19T20:23:52.629Z,25.49
2023-02-19T20:26:25.602Z,25.60
2023-02-19T20:28:53.998Z,25.45
2023-02-19T20:31:22.352Z,25.40
2023-02-19T20:33:54.485Z,25.37
2023-02-19T20:36:22.900Z,25.36
2023-02-19T20:38:51.297Z,25.42
2023-02-19T20:41:19.983Z,25.35
2023-02-19T20:43:48.159Z,25.22
2023-02-19T20:46:16.255Z,25.34
2023-02-19T20:48:44.742Z,25.31
2023-02-19T20:51:12.779Z,25.37
2023-02-19T20:53:41.549Z,25.18
2023-02-19T20:56:11.468Z,25.26
2023-02-19T20:58:43.408Z,25.20
2023-02-19T21:01:12.235Z,25.24
2023-02-19T21:03:41.645Z,25.22
2023-02-19T21:06:10.011Z,25.24
2023-02-19T21:08:39.110Z,25.25
2023-02-19T21:11:07.282Z,25.14
2023-02-19T21:13:38.326Z,25.18
2023-02-19T21:16:06.952Z,25.15
2023-02-19T21:18:35.088Z,25.15
2023-02-19T21:22:25.076Z,25.41
2023-02-19T21:24:55.508Z,25.14
2023-02-19T21:27:23.780Z,25.21
2023-02-19T21:29:51.852Z,25.19
2023-02-19T21:32:20.692Z,25.08
2023-02-19T21:34:49.081Z,25.14
2023-02-19T21:37:17.200Z,25.14
2023-02-19T21:39:45.570Z,25.14
2023-02-19T21:42:13.407Z,25.19
2023-02-19T21:44:43.211Z,25.11
2023-02-19T21:47:13.892Z,25.12
2023-02-19T21:49:43.150Z,25.15
2023-02-19T21:52:11.070Z,25.12
2023-02-19T21:54:39.682Z,25.08
2023-02-19T21:57:09.492Z,25.08
2023-02-19T21:59:38.907Z,25.13
2023-02-19T22:02:06.875Z,25.21
2023-02-19T22:04:36.694Z,25.06
2023-02-19T22:07:04.595Z,25.12
2023-02-19T22:09:33.773Z,25.16
2023-02-19T22:12:01.616Z,25.11
2023-02-19T22:14:29.735Z,25.13
2023-02-19T22:16:57.642Z,25.10
2023-02-19T22:19:25.626Z,25.05
2023-02-19T22:21:53.522Z,25.13
2023-02-19T22:24:23.083Z,25.17
2023-02-19T22:26:55.580Z,25.24
2023-02-19T22:29:23.856Z,25.23
2023-02-19T22:31:52.927Z,25.18
2023-02-19T22:34:21.263Z,25.28
2023-02-19T22:36:50.800Z,25.29
2023-02-19T22:39:38.662Z,25.27
2023-02-19T22:42:06.637Z,25.25
2023-02-19T22:44:37.012Z,25.20
2023-02-19T22:47:05.004Z,25.23
2023-02-19T22:49:33.544Z,25.22
2023-02-19T22:52:03.708Z,25.28
2023-02-19T22:54:31.989Z,25.22
2023-02-19T22:57:00.229Z,25.22
2023-02-19T22:59:28.297Z,25.28
2023-02-19T23:01:56.322Z,25.31
2023-02-19T23:04:24.989Z,25.17
2023-02-19T23:06:52.987Z,25.31
2023-02-19T23:09:23.410Z,25.24
2023-02-19T23:11:51.447Z,25.18
2023-02-19T23:14:20.860Z,25.21
2023-02-19T23:16:49.894Z,25.28
2023-02-19T23:19:18.581Z,25.23
2023-02-19T23:21:47.079Z,25.17
2023-02-19T23:24:15.245Z,25.16
2023-02-19T23:26:44.369Z,25.17
2023-02-19T23:29:15.609Z,25.29
2023-02-19T23:31:43.557Z,25.21
2023-02-19T23:34:11.618Z,25.26
2023-02-19T23:36:41.227Z,25.18
2023-02-19T23:39:11.159Z,25.31
2023-02-19T23:41:39.179Z,25.23
2023-02-19T23:44:07.380Z,25.28
2023-02-19T23:46:35.231Z,25.25
2023-02-19T23:49:03.107Z,25.17
2023-02-19T23:51:31.208Z,25.26
2023-02-19T23:53:59.468Z,25.26
2023-02-19T23:56:28.190Z,25.19
2023-02-19T23:58:56.976Z,25.20
